sensor_id;sensor_type;location;lat;lon;timestamp;P1;durP1;ratioP1;P2;durP2;ratioP2
74233;SDS011;62591;55.764;37.718;2024-03-23T00:54:50;30.52;;;17.15;;
74233;SDS011;62591;55.764;37.718;2024-03-23T00:57:17;31.92;;;17.45;;
74233;SDS011;62591;55.764;37.718;2024-03-23T00:59:44;29.25;;;16.33;;
74233;SDS011;62591;55.764;37.718;2024-03-23T01:02:12;30.02;;;17.05;;
74233;SDS011;62591;55.764;37.718;2024-03-23T01:04:39;36.65;;;17.88;;
74233;SDS011;62591;55.764;37.718;2024-03-23T01:07:06;34.55;;;17.58;;
74233;SDS011;62591;55.764;37.718;2024-03-23T01:09:35;35.22;;;18.25;;
74233;SDS011;62591;55.764;37.718;2024-03-23T01:12:04;33.47;;;17.35;;
74233;SDS011;62591;55.764;37.718;2024-03-23T01:14:31;35.00;;;17.77;;
74233;SDS011;62591;55.764;37.718;2024-03-23T01:16:59;30.10;;;16.90;;
74233;SDS011;62591;55.764;37.718;2024-03-23T01:19:26;30.88;;;16.83;;
74233;SDS011;62591;55.764;37.718;2024-03-23T01:21:54;37.22;;;18.00;;
74233;SDS011;62591;55.764;37.718;2024-03-23T01:24:21;30.40;;;15.80;;
74233;SDS011;62591;55.764;37.718;2024-03-23T01:26:50;33.63;;;16.73;;
74233;SDS011;62591;55.764;37.718;2024-03-23T01:29:17;35.15;;;17.08;;
74233;SDS011;62591;55.764;37.718;2024-03-23T01:31:45;33.28;;;17.55;;
74233;SDS011;62591;55.764;37.718;2024-03-23T01:34:11;32.75;;;17.17;;
74233;SDS011;62591;55.764;37.718;2024-03-23T01:36:39;31.73;;;18.85;;
74233;SDS011;62591;55.764;37.718;2024-03-23T01:39:06;29.52;;;17.17;;
74233;SDS011;62591;55.764;37.718;2024-03-23T01:41:35;34.13;;;17.77;;
74233;SDS011;62591;55.764;37.718;2024-03-23T01:44:06;33.40;;;17.48;;
74233;SDS011;62591;55.764;37.718;2024-03-23T01:46:36;32.15;;;18.08;;
74233;SDS011;62591;55.764;37.718;2024-03-23T01:49:05;32.03;;;16.00;;
74233;SDS011;62591;55.764;37.718;2024-03-23T01:51:32;33.97;;;17.50;;
74233;SDS011;62591;55.764;37.718;2024-03-23T01:54:02;44.08;;;17.42;;
74233;SDS011;62591;55.764;37.718;2024-03-23T01:56:29;34.13;;;17.40;;
74233;SDS011;62591;55.764;37.718;2024-03-23T01:58:59;32.25;;;17.52;;
74233;SDS011;62591;55.764;37.718;2024-03-23T02:01:28;34.75;;;18.00;;
74233;SDS011;62591;55.764;37.718;2024-03-23T02:03:56;31.58;;;17.17;;
74233;SDS011;62591;55.764;37.718;2024-03-23T02:06:22;31.63;;;17.35;;
74233;SDS011;62591;55.764;37.718;2024-03-23T02:08:52;29.60;;;16.88;;
74233;SDS011;62591;55.764;37.718;2024-03-23T02:13:46;30.88;;;15.98;;
74233;SDS011;62591;55.764;37.718;2024-03-23T02:16:14;28.83;;;16.35;;
74233;SDS011;62591;55.764;37.718;2024-03-23T02:18:47;32.88;;;16.95;;
74233;SDS011;62591;55.764;37.718;2024-03-23T02:21:15;29.45;;;16.40;;
74233;SDS011;62591;55.764;37.718;2024-03-23T02:23:44;30.67;;;16.42;;
74233;SDS011;62591;55.764;37.718;2024-03-23T02:26:13;32.33;;;16.75;;
74233;SDS011;62591;55.764;37.718;2024-03-23T02:28:41;28.65;;;17.00;;
74233;SDS011;62591;55.764;37.718;2024-03-23T02:31:07;30.33;;;16.45;;
74233;SDS011;62591;55.764;37.718;2024-03-23T02:33:35;31.00;;;16.60;;
74233;SDS011;62591;55.764;37.718;2024-03-23T02:36:04;29.00;;;15.93;;
74233;SDS011;62591;55.764;37.718;2024-03-23T02:38:32;32.50;;;17.95;;
74233;SDS011;62591;55.764;37.718;2024-03-23T02:41:03;34.25;;;20.55;;
74233;SDS011;62591;55.764;37.718;2024-03-23T02:43:32;35.33;;;19.08;;
74233;SDS011;62591;55.764;37.718;2024-03-23T02:45:59;30.33;;;15.85;;
74233;SDS011;62591;55.764;37.718;2024-03-23T02:48:27;29.40;;;16.98;;
74233;SDS011;62591;55.764;37.718;2024-03-23T02:50:54;31.45;;;16.10;;
74233;SDS011;62591;55.764;37.718;2024-03-23T02:53:21;27.92;;;15.45;;
74233;SDS011;62591;55.764;37.718;2024-03-23T02:55:48;28.98;;;15.65;;
74233;SDS011;62591;55.764;37.718;2024-03-23T02:58:17;28.13;;;15.75;;
74233;SDS011;62591;55.764;37.718;2024-03-23T03:00:45;34.15;;;16.98;;
74233;SDS011;62591;55.764;37.718;2024-03-23T03:03:12;30.58;;;15.40;;
74233;SDS011;62591;55.764;37.718;2024-03-23T03:05:39;30.95;;;17.50;;
74233;SDS011;62591;55.764;37.718;2024-03-23T03:08:07;29.95;;;16.67;;
74233;SDS011;62591;55.764;37.718;2024-03-23T03:10:34;29.25;;;15.95;;
74233;SDS011;62591;55.764;37.718;2024-03-23T03:13:02;31.50;;;17.08;;
74233;SDS011;62591;55.764;37.718;2024-03-23T03:15:30;29.35;;;16.10;;
74233;SDS011;62591;55.764;37.718;2024-03-23T03:18:00;31.42;;;15.77;;
74233;SDS011;62591;55.764;37.718;2024-03-23T03:20:27;31.27;;;16.70;;
74233;SDS011;62591;55.764;37.718;2024-03-23T03:22:55;29.10;;;15.60;;
74233;SDS011;62591;55.764;37.718;2024-03-23T03:25:21;30.05;;;15.63;;
74233;SDS011;62591;55.764;37.718;2024-03-23T03:27:51;28.95;;;16.27;;
74233;SDS011;62591;55.764;37.718;2024-03-23T03:30:18;28.15;;;15.25;;
74233;SDS011;62591;55.764;37.718;2024-03-23T03:32:47;28.60;;;15.15;;
74233;SDS011;62591;55.764;37.718;2024-03-23T03:35:15;33.08;;;20.15;;
74233;SDS011;62591;55.764;37.718;2024-03-23T03:37:43;29.98;;;16.42;;
74233;SDS011;62591;55.764;37.718;2024-03-23T03:40:10;29.75;;;15.82;;
74233;SDS011;62591;55.764;37.718;2024-03-23T03:42:41;31.52;;;17.67;;
74233;SDS011;62591;55.764;37.718;2024-03-23T03:45:07;28.52;;;15.45;;
74233;SDS011;62591;55.764;37.718;2024-03-23T03:47:35;30.50;;;16.10;;
74233;SDS011;62591;55.764;37.718;2024-03-23T03:50:04;28.15;;;15.88;;
74233;SDS011;62591;55.764;37.718;2024-03-23T03:52:33;26.58;;;15.55;;
74233;SDS011;62591;55.764;37.718;2024-03-23T03:55:01;28.40;;;14.75;;
74233;SDS011;62591;55.764;37.718;2024-03-23T03:57:30;29.08;;;15.75;;
74233;SDS011;62591;55.764;37.718;2024-03-23T03:59:57;28.08;;;15.80;;
74233;SDS011;62591;55.764;37.718;2024-03-23T04:02:25;24.40;;;13.98;;
74233;SDS011;62591;55.764;37.718;2024-03-23T04:04:51;28.23;;;15.73;;
74233;SDS011;62591;55.764;37.718;2024-03-23T04:07:20;28.13;;;15.73;;
74233;SDS011;62591;55.764;37.718;2024-03-23T04:09:48;29.13;;;15.80;;
74233;SDS011;62591;55.764;37.718;2024-03-23T04:12:16;26.83;;;15.50;;
74233;SDS011;62591;55.764;37.718;2024-03-23T04:14:43;24.38;;;14.18;;
74233;SDS011;62591;55.764;37.718;2024-03-23T04:17:11;25.38;;;14.88;;
74233;SDS011;62591;55.764;37.718;2024-03-23T04:19:38;29.95;;;14.07;;
74233;SDS011;62591;55.764;37.718;2024-03-23T04:22:06;29.27;;;16.40;;
74233;SDS011;62591;55.764;37.718;2024-03-23T04:27:04;24.95;;;14.15;;
74233;SDS011;62591;55.764;37.718;2024-03-23T04:29:31;26.98;;;14.85;;
74233;SDS011;62591;55.764;37.718;2024-03-23T04:31:58;23.05;;;12.95;;
74233;SDS011;62591;55.764;37.718;2024-03-23T04:34:26;27.88;;;14.27;;
74233;SDS011;62591;55.764;37.718;2024-03-23T04:36:55;28.00;;;14.52;;
74233;SDS011;62591;55.764;37.718;2024-03-23T04:39:21;25.92;;;14.82;;
74233;SDS011;62591;55.764;37.718;2024-03-23T04:41:50;24.30;;;14.15;;
74233;SDS011;62591;55.764;37.718;2024-03-23T04:44:18;26.52;;;16.73;;
74233;SDS011;62591;55.764;37.718;2024-03-23T04:46:46;29.27;;;15.15;;
74233;SDS011;62591;55.764;37.718;2024-03-23T04:49:14;26.60;;;15.15;;
74233;SDS011;62591;55.764;37.718;2024-03-23T04:51:42;25.00;;;14.38;;
74233;SDS011;62591;55.764;37.718;2024-03-23T04:54:11;25.20;;;13.90;;
74233;SDS011;62591;55.764;37.718;2024-03-23T04:56:38;26.30;;;13.90;;
74233;SDS011;62591;55.764;37.718;2024-03-23T04:59:09;25.98;;;14.57;;
74233;SDS011;62591;55.764;37.718;2024-03-23T05:01:35;23.92;;;13.65;;
74233;SDS011;62591;55.764;37.718;2024-03-23T05:04:09;24.85;;;12.85;;
74233;SDS011;62591;55.764;37.718;2024-03-23T05:06:36;25.00;;;13.48;;
74233;SDS011;62591;55.764;37.718;2024-03-23T05:09:04;26.13;;;14.23;;
74233;SDS011;62591;55.764;37.718;2024-03-23T05:11:33;25.27;;;13.27;;
74233;SDS011;62591;55.764;37.718;2024-03-23T05:14:00;22.70;;;13.93;;
74233;SDS011;62591;55.764;37.718;2024-03-23T05:16:31;29.35;;;15.90;;
74233;SDS011;62591;55.764;37.718;2024-03-23T05:18:58;21.48;;;12.48;;
74233;SDS011;62591;55.764;37.718;2024-03-23T05:21:26;23.08;;;12.75;;
74233;SDS011;62591;55.764;37.718;2024-03-23T05:23:54;20.55;;;12.98;;
74233;SDS011;62591;55.764;37.718;2024-03-23T05:26:21;26.17;;;13.63;;
74233;SDS011;62591;55.764;37.718;2024-03-23T05:31:41;21.25;;;12.90;;
74233;SDS011;62591;55.764;37.718;2024-03-23T05:34:08;22.42;;;12.45;;
74233;SDS011;62591;55.764;37.718;2024-03-23T05:36:54;24.30;;;12.32;;
74233;SDS011;62591;55.764;37.718;2024-03-23T05:39:22;21.98;;;12.27;;
74233;SDS011;62591;55.764;37.718;2024-03-23T05:41:50;22.63;;;12.43;;
74233;SDS011;62591;55.764;37.718;2024-03-23T05:44:18;22.13;;;12.32;;
74233;SDS011;62591;55.764;37.718;2024-03-23T05:46:47;23.02;;;13.32;;
74233;SDS011;62591;55.764;37.718;2024-03-23T05:49:15;21.00;;;12.57;;
74233;SDS011;62591;55.764;37.718;2024-03-23T05:51:42;21.23;;;13.05;;
74233;SDS011;62591;55.764;37.718;2024-03-23T05:54:12;20.83;;;11.82;;
74233;SDS011;62591;55.764;37.718;2024-03-23T05:56:38;19.92;;;11.43;;
74233;SDS011;62591;55.764;37.718;2024-03-23T05:59:07;19.77;;;11.82;;
74233;SDS011;62591;55.764;37.718;2024-03-23T06:01:35;21.45;;;12.10;;
74233;SDS011;62591;55.764;37.718;2024-03-23T06:04:06;22.13;;;11.90;;
74233;SDS011;62591;55.764;37.718;2024-03-23T06:06:33;21.17;;;12.68;;
74233;SDS011;62591;55.764;37.718;2024-03-23T06:09:00;19.40;;;11.82;;
74233;SDS011;62591;55.764;37.718;2024-03-23T06:11:27;20.63;;;12.00;;
74233;SDS011;62591;55.764;37.718;2024-03-23T06:13:55;20.92;;;11.55;;
74233;SDS011;62591;55.764;37.718;2024-03-23T06:18:50;23.33;;;11.35;;
74233;SDS011;62591;55.764;37.718;2024-03-23T06:21:18;20.83;;;11.27;;
74233;SDS011;62591;55.764;37.718;2024-03-23T06:23:46;17.88;;;11.20;;
74233;SDS011;62591;55.764;37.718;2024-03-23T06:26:17;21.02;;;11.88;;
74233;SDS011;62591;55.764;37.718;2024-03-23T06:29:04;18.02;;;11.00;;
74233;SDS011;62591;55.764;37.718;2024-03-23T06:31:31;23.63;;;12.90;;
74233;SDS011;62591;55.764;37.718;2024-03-23T06:33:59;21.60;;;11.93;;
74233;SDS011;62591;55.764;37.718;2024-03-23T06:36:28;15.02;;;10.55;;
74233;SDS011;62591;55.764;37.718;2024-03-23T06:38:57;14.93;;;10.27;;
74233;SDS011;62591;55.764;37.718;2024-03-23T06:41:24;20.17;;;10.82;;
74233;SDS011;62591;55.764;37.718;2024-03-23T06:43:54;16.73;;;10.75;;
74233;SDS011;62591;55.764;37.718;2024-03-23T06:46:20;17.70;;;10.55;;
74233;SDS011;62591;55.764;37.718;2024-03-23T06:48:48;16.73;;;10.20;;
74233;SDS011;62591;55.764;37.718;2024-03-23T06:51:15;18.67;;;10.48;;
74233;SDS011;62591;55.764;37.718;2024-03-23T06:53:44;17.02;;;9.77;;
74233;SDS011;62591;55.764;37.718;2024-03-23T06:56:11;18.33;;;10.13;;
74233;SDS011;62591;55.764;37.718;2024-03-23T06:58:41;16.98;;;10.10;;
74233;SDS011;62591;55.764;37.718;2024-03-23T07:01:08;15.00;;;9.30;;
74233;SDS011;62591;55.764;37.718;2024-03-23T07:03:36;15.27;;;9.98;;
74233;SDS011;62591;55.764;37.718;2024-03-23T07:06:03;16.38;;;9.75;;
74233;SDS011;62591;55.764;37.718;2024-03-23T07:08:30;14.90;;;8.75;;
74233;SDS011;62591;55.764;37.718;2024-03-23T07:10:59;17.30;;;9.85;;
74233;SDS011;62591;55.764;37.718;2024-03-23T07:13:28;15.80;;;10.23;;
74233;SDS011;62591;55.764;37.718;2024-03-23T07:15:55;17.48;;;9.05;;
74233;SDS011;62591;55.764;37.718;2024-03-23T07:18:25;14.73;;;8.98;;
74233;SDS011;62591;55.764;37.718;2024-03-23T07:20:52;15.27;;;9.25;;
74233;SDS011;62591;55.764;37.718;2024-03-23T07:23:20;17.38;;;9.75;;
74233;SDS011;62591;55.764;37.718;2024-03-23T07:25:55;13.88;;;8.35;;
74233;SDS011;62591;55.764;37.718;2024-03-23T07:28:25;16.00;;;8.40;;
74233;SDS011;62591;55.764;37.718;2024-03-23T07:31:03;14.95;;;8.63;;
74233;SDS011;62591;55.764;37.718;2024-03-23T07:33:32;13.63;;;9.52;;
74233;SDS011;62591;55.764;37.718;2024-03-23T07:35:59;15.45;;;8.32;;
74233;SDS011;62591;55.764;37.718;2024-03-23T07:38:26;16.42;;;10.75;;
74233;SDS011;62591;55.764;37.718;2024-03-23T07:41:02;16.40;;;10.82;;
74233;SDS011;62591;55.764;37.718;2024-03-23T07:43:32;11.93;;;8.10;;
74233;SDS011;62591;55.764;37.718;2024-03-23T07:45:58;10.65;;;7.28;;
74233;SDS011;62591;55.764;37.718;2024-03-23T07:48:27;13.60;;;8.55;;
74233;SDS011;62591;55.764;37.718;2024-03-23T07:50:58;11.02;;;7.32;;
74233;SDS011;62591;55.764;37.718;2024-03-23T07:53:27;18.45;;;8.95;;
74233;SDS011;62591;55.764;37.718;2024-03-23T07:55:56;13.93;;;8.32;;
74233;SDS011;62591;55.764;37.718;2024-03-23T07:58:25;14.57;;;7.75;;
74233;SDS011;62591;55.764;37.718;2024-03-23T08:00:54;14.27;;;8.98;;
74233;SDS011;62591;55.764;37.718;2024-03-23T08:03:22;12.77;;;7.45;;
74233;SDS011;62591;55.764;37.718;2024-03-23T08:05:49;13.70;;;8.88;;
74233;SDS011;62591;55.764;37.718;2024-03-23T08:08:17;11.85;;;8.13;;
74233;SDS011;62591;55.764;37.718;2024-03-23T08:10:48;14.07;;;8.38;;
74233;SDS011;62591;55.764;37.718;2024-03-23T08:13:16;15.68;;;8.75;;
74233;SDS011;62591;55.764;37.718;2024-03-23T08:15:43;11.98;;;8.65;;
74233;SDS011;62591;55.764;37.718;2024-03-23T08:18:16;12.38;;;8.35;;
74233;SDS011;62591;55.764;37.718;2024-03-23T08:20:44;12.15;;;8.02;;
74233;SDS011;62591;55.764;37.718;2024-03-23T08:23:18;12.52;;;7.90;;
74233;SDS011;62591;55.764;37.718;2024-03-23T08:25:47;13.23;;;8.07;;
74233;SDS011;62591;55.764;37.718;2024-03-23T08:28:16;12.85;;;8.38;;
74233;SDS011;62591;55.764;37.718;2024-03-23T08:33:10;12.63;;;7.53;;
74233;SDS011;62591;55.764;37.718;2024-03-23T08:35:39;14.75;;;8.38;;
74233;SDS011;62591;55.764;37.718;2024-03-23T08:38:07;13.50;;;8.45;;
74233;SDS011;62591;55.764;37.718;2024-03-23T08:40:59;12.48;;;7.35;;
74233;SDS011;62591;55.764;37.718;2024-03-23T08:43:30;13.07;;;8.18;;
74233;SDS011;62591;55.764;37.718;2024-03-23T08:46:05;10.68;;;7.85;;
74233;SDS011;62591;55.764;37.718;2024-03-23T08:48:34;16.45;;;8.23;;
74233;SDS011;62591;55.764;37.718;2024-03-23T08:51:03;13.82;;;7.88;;
74233;SDS011;62591;55.764;37.718;2024-03-23T08:53:33;12.02;;;7.30;;
74233;SDS011;62591;55.764;37.718;2024-03-23T08:56:01;16.15;;;8.35;;
74233;SDS011;62591;55.764;37.718;2024-03-23T08:58:30;13.75;;;8.05;;
74233;SDS011;62591;55.764;37.718;2024-03-23T09:01:02;12.15;;;7.65;;
74233;SDS011;62591;55.764;37.718;2024-03-23T09:03:31;11.20;;;7.30;;
74233;SDS011;62591;55.764;37.718;2024-03-23T09:05:58;12.07;;;7.07;;
74233;SDS011;62591;55.764;37.718;2024-03-23T09:08:43;13.98;;;8.13;;
74233;SDS011;62591;55.764;37.718;2024-03-23T09:11:11;10.65;;;7.53;;
74233;SDS011;62591;55.764;37.718;2024-03-23T09:13:41;13.25;;;7.72;;
74233;SDS011;62591;55.764;37.718;2024-03-23T09:16:17;11.88;;;7.60;;
74233;SDS011;62591;55.764;37.718;2024-03-23T09:18:46;11.65;;;8.15;;
74233;SDS011;62591;55.764;37.718;2024-03-23T09:21:14;9.48;;;6.15;;
74233;SDS011;62591;55.764;37.718;2024-03-23T09:23:44;12.50;;;7.32;;
74233;SDS011;62591;55.764;37.718;2024-03-23T09:26:14;11.63;;;7.50;;
74233;SDS011;62591;55.764;37.718;2024-03-23T09:28:42;11.60;;;7.57;;
74233;SDS011;62591;55.764;37.718;2024-03-23T09:31:09;9.90;;;6.72;;
74233;SDS011;62591;55.764;37.718;2024-03-23T09:33:44;11.43;;;7.30;;
74233;SDS011;62591;55.764;37.718;2024-03-23T09:36:10;10.25;;;7.10;;
74233;SDS011;62591;55.764;37.718;2024-03-23T09:38:38;11.43;;;7.70;;
74233;SDS011;62591;55.764;37.718;2024-03-23T09:41:08;10.10;;;7.03;;
74233;SDS011;62591;55.764;37.718;2024-03-23T09:43:36;11.65;;;6.75;;
74233;SDS011;62591;55.764;37.718;2024-03-23T09:46:03;10.75;;;7.43;;
74233;SDS011;62591;55.764;37.718;2024-03-23T09:48:32;14.50;;;7.25;;
74233;SDS011;62591;55.764;37.718;2024-03-23T09:50:59;10.40;;;7.38;;
74233;SDS011;62591;55.764;37.718;2024-03-23T09:53:28;10.68;;;7.47;;
74233;SDS011;62591;55.764;37.718;2024-03-23T09:55:55;9.95;;;6.68;;
74233;SDS011;62591;55.764;37.718;2024-03-23T09:58:24;11.13;;;7.15;;
74233;SDS011;62591;55.764;37.718;2024-03-23T10:00:53;12.70;;;7.65;;
74233;SDS011;62591;55.764;37.718;2024-03-23T10:03:24;10.98;;;6.80;;
74233;SDS011;62591;55.764;37.718;2024-03-23T10:06:02;9.85;;;6.68;;
74233;SDS011;62591;55.764;37.718;2024-03-23T10:08:31;11.52;;;7.15;;
74233;SDS011;62591;55.764;37.718;2024-03-23T10:11:01;10.82;;;7.07;;
74233;SDS011;62591;55.764;37.718;2024-03-23T10:13:43;10.77;;;7.00;;
74233;SDS011;62591;55.764;37.718;2024-03-23T10:16:10;10.70;;;7.13;;
74233;SDS011;62591;55.764;37.718;2024-03-23T10:18:38;9.35;;;6.47;;
74233;SDS011;62591;55.764;37.718;2024-03-23T10:21:08;9.50;;;6.70;;
74233;SDS011;62591;55.764;37.718;2024-03-23T10:23:38;10.13;;;6.63;;
74233;SDS011;62591;55.764;37.718;2024-03-23T10:26:15;9.13;;;6.53;;
74233;SDS011;62591;55.764;37.718;2024-03-23T10:28:55;10.45;;;6.78;;
74233;SDS011;62591;55.764;37.718;2024-03-23T10:31:25;13.25;;;7.30;;
74233;SDS011;62591;55.764;37.718;2024-03-23T10:33:53;9.20;;;6.57;;
74233;SDS011;62591;55.764;37.718;2024-03-23T10:36:20;10.88;;;7.00;;
74233;SDS011;62591;55.764;37.718;2024-03-23T10:38:50;10.23;;;6.70;;
74233;SDS011;62591;55.764;37.718;2024-03-23T10:41:17;10.57;;;6.85;;
74233;SDS011;62591;55.764;37.718;2024-03-23T10:43:46;9.15;;;6.75;;
74233;SDS011;62591;55.764;37.718;2024-03-23T10:46:17;12.60;;;7.38;;
74233;SDS011;62591;55.764;37.718;2024-03-23T10:48:45;13.23;;;8.10;;
74233;SDS011;62591;55.764;37.718;2024-03-23T10:53:41;12.90;;;7.20;;
74233;SDS011;62591;55.764;37.718;2024-03-23T10:56:08;10.20;;;7.25;;
74233;SDS011;62591;55.764;37.718;2024-03-23T10:58:38;12.63;;;8.13;;
74233;SDS011;62591;55.764;37.718;2024-03-23T11:01:07;11.80;;;7.35;;
74233;SDS011;62591;55.764;37.718;2024-03-23T11:03:39;12.45;;;7.40;;
74233;SDS011;62591;55.764;37.718;2024-03-23T11:06:11;11.80;;;7.47;;
74233;SDS011;62591;55.764;37.718;2024-03-23T11:11:30;13.43;;;7.65;;
74233;SDS011;62591;55.764;37.718;2024-03-23T11:13:59;16.08;;;8.93;;
74233;SDS011;62591;55.764;37.718;2024-03-23T11:16:26;11.70;;;8.30;;
74233;SDS011;62591;55.764;37.718;2024-03-23T11:22:09;12.40;;;8.05;;
74233;SDS011;62591;55.764;37.718;2024-03-23T11:24:42;12.65;;;8.20;;
74233;SDS011;62591;55.764;37.718;2024-03-23T11:27:16;19.50;;;13.52;;
74233;SDS011;62591;55.764;37.718;2024-03-23T11:29:46;13.32;;;7.70;;
74233;SDS011;62591;55.764;37.718;2024-03-23T11:32:13;12.13;;;7.28;;
74233;SDS011;62591;55.764;37.718;2024-03-23T11:34:41;12.50;;;7.78;;
74233;SDS011;62591;55.764;37.718;2024-03-23T11:37:09;10.80;;;7.35;;
74233;SDS011;62591;55.764;37.718;2024-03-23T11:39:40;13.20;;;7.38;;
74233;SDS011;62591;55.764;37.718;2024-03-23T11:42:07;12.88;;;8.43;;
74233;SDS011;62591;55.764;37.718;2024-03-23T11:44:35;11.98;;;7.72;;
74233;SDS011;62591;55.764;37.718;2024-03-23T11:49:34;12.55;;;7.57;;
74233;SDS011;62591;55.764;37.718;2024-03-23T11:52:07;12.68;;;8.82;;
74233;SDS011;62591;55.764;37.718;2024-03-23T11:54:36;15.55;;;9.32;;
74233;SDS011;62591;55.764;37.718;2024-03-23T11:57:03;13.27;;;8.45;;
74233;SDS011;62591;55.764;37.718;2024-03-23T11:59:35;14.90;;;9.13;;
74233;SDS011;62591;55.764;37.718;2024-03-23T12:02:07;14.45;;;8.55;;
74233;SDS011;62591;55.764;37.718;2024-03-23T12:04:37;14.90;;;9.05;;
74233;SDS011;62591;55.764;37.718;2024-03-23T12:09:39;14.02;;;8.57;;
74233;SDS011;62591;55.764;37.718;2024-03-23T12:12:08;12.60;;;8.10;;
74233;SDS011;62591;55.764;37.718;2024-03-23T12:14:38;14.43;;;9.15;;
74233;SDS011;62591;55.764;37.718;2024-03-23T12:17:11;15.88;;;9.70;;
74233;SDS011;62591;55.764;37.718;2024-03-23T12:19:39;15.57;;;9.68;;
74233;SDS011;62591;55.764;37.718;2024-03-23T12:22:07;16.48;;;11.18;;
74233;SDS011;62591;55.764;37.718;2024-03-23T12:24:35;25.30;;;15.80;;
74233;SDS011;62591;55.764;37.718;2024-03-23T12:27:04;16.35;;;10.82;;
74233;SDS011;62591;55.764;37.718;2024-03-23T12:29:33;15.95;;;9.18;;
74233;SDS011;62591;55.764;37.718;2024-03-23T12:32:00;19.92;;;9.48;;
74233;SDS011;62591;55.764;37.718;2024-03-23T12:34:29;15.65;;;9.43;;
74233;SDS011;62591;55.764;37.718;2024-03-23T12:36:57;14.30;;;9.25;;
74233;SDS011;62591;55.764;37.718;2024-03-23T12:39:26;13.73;;;9.40;;
74233;SDS011;62591;55.764;37.718;2024-03-23T12:41:53;14.75;;;9.77;;
74233;SDS011;62591;55.764;37.718;2024-03-23T12:44:23;14.52;;;9.63;;
74233;SDS011;62591;55.764;37.718;2024-03-23T12:46:49;16.83;;;9.65;;
74233;SDS011;62591;55.764;37.718;2024-03-23T12:49:23;14.98;;;9.95;;
74233;SDS011;62591;55.764;37.718;2024-03-23T12:51:53;16.95;;;10.45;;
74233;SDS011;62591;55.764;37.718;2024-03-23T12:54:26;21.27;;;9.82;;
74233;SDS011;62591;55.764;37.718;2024-03-23T12:56:58;15.68;;;10.32;;
74233;SDS011;62591;55.764;37.718;2024-03-23T12:59:27;15.00;;;9.68;;
74233;SDS011;62591;55.764;37.718;2024-03-23T13:01:58;18.13;;;10.30;;
74233;SDS011;62591;55.764;37.718;2024-03-23T13:04:27;17.58;;;9.93;;
74233;SDS011;62591;55.764;37.718;2024-03-23T13:06:58;18.60;;;10.23;;
74233;SDS011;62591;55.764;37.718;2024-03-23T13:09:25;19.05;;;10.10;;
74233;SDS011;62591;55.764;37.718;2024-03-23T13:11:53;16.35;;;10.73;;
74233;SDS011;62591;55.764;37.718;2024-03-23T13:14:20;19.75;;;11.70;;
74233;SDS011;62591;55.764;37.718;2024-03-23T13:16:56;17.48;;;10.60;;
74233;SDS011;62591;55.764;37.718;2024-03-23T13:19:23;17.80;;;10.68;;
74233;SDS011;62591;55.764;37.718;2024-03-23T13:21:56;19.77;;;10.52;;
74233;SDS011;62591;55.764;37.718;2024-03-23T13:24:24;18.13;;;10.43;;
74233;SDS011;62591;55.764;37.718;2024-03-23T13:26:53;17.00;;;10.25;;
74233;SDS011;62591;55.764;37.718;2024-03-23T13:29:20;18.67;;;11.13;;
74233;SDS011;62591;55.764;37.718;2024-03-23T13:31:51;16.48;;;9.77;;
74233;SDS011;62591;55.764;37.718;2024-03-23T13:34:19;16.10;;;9.65;;
74233;SDS011;62591;55.764;37.718;2024-03-23T13:36:49;18.00;;;9.63;;
74233;SDS011;62591;55.764;37.718;2024-03-23T13:39:20;16.33;;;8.95;;
74233;SDS011;62591;55.764;37.718;2024-03-23T13:41:47;15.05;;;8.77;;
74233;SDS011;62591;55.764;37.718;2024-03-23T13:44:14;17.48;;;10.48;;
74233;SDS011;62591;55.764;37.718;2024-03-23T13:46:47;14.07;;;8.98;;
74233;SDS011;62591;55.764;37.718;2024-03-23T13:49:25;15.18;;;8.95;;
74233;SDS011;62591;55.764;37.718;2024-03-23T13:51:54;15.15;;;9.30;;
74233;SDS011;62591;55.764;37.718;2024-03-23T13:54:23;14.40;;;9.10;;
74233;SDS011;62591;55.764;37.718;2024-03-23T13:56:52;16.88;;;9.98;;
74233;SDS011;62591;55.764;37.718;2024-03-23T13:59:20;17.23;;;10.05;;
74233;SDS011;62591;55.764;37.718;2024-03-23T14:01:49;19.77;;;11.63;;
74233;SDS011;62591;55.764;37.718;2024-03-23T14:04:19;14.63;;;7.70;;
74233;SDS011;62591;55.764;37.718;2024-03-23T14:06:49;14.15;;;8.20;;
74233;SDS011;62591;55.764;37.718;2024-03-23T14:09:16;15.05;;;8.68;;
74233;SDS011;62591;55.764;37.718;2024-03-23T14:11:47;12.35;;;8.07;;
74233;SDS011;62591;55.764;37.718;2024-03-23T14:14:16;12.82;;;8.25;;
74233;SDS011;62591;55.764;37.718;2024-03-23T14:16:47;13.27;;;7.40;;
74233;SDS011;62591;55.764;37.718;2024-03-23T14:19:15;11.57;;;7.60;;
74233;SDS011;62591;55.764;37.718;2024-03-23T14:22:04;15.38;;;7.50;;
74233;SDS011;62591;55.764;37.718;2024-03-23T14:24:32;11.63;;;7.55;;
74233;SDS011;62591;55.764;37.718;2024-03-23T14:27:04;12.68;;;7.80;;
74233;SDS011;62591;55.764;37.718;2024-03-23T14:30:10;11.50;;;7.18;;
74233;SDS011;62591;55.764;37.718;2024-03-23T14:34:03;13.73;;;7.72;;
74233;SDS011;62591;55.764;37.718;2024-03-23T14:36:32;12.07;;;7.18;;
74233;SDS011;62591;55.764;37.718;2024-03-23T14:39:00;9.70;;;6.72;;
74233;SDS011;62591;55.764;37.718;2024-03-23T14:41:28;9.63;;;6.90;;
74233;SDS011;62591;55.764;37.718;2024-03-23T14:43:55;11.05;;;7.13;;
74233;SDS011;62591;55.764;37.718;2024-03-23T14:46:24;11.30;;;6.55;;
74233;SDS011;62591;55.764;37.718;2024-03-23T14:48:51;11.38;;;7.40;;
74233;SDS011;62591;55.764;37.718;2024-03-23T14:51:20;15.52;;;6.43;;
74233;SDS011;62591;55.764;37.718;2024-03-23T14:53:48;10.43;;;6.78;;
74233;SDS011;62591;55.764;37.718;2024-03-23T14:56:18;10.13;;;6.95;;
74233;SDS011;62591;55.764;37.718;2024-03-23T14:58:44;12.40;;;6.88;;
74233;SDS011;62591;55.764;37.718;2024-03-23T15:01:13;9.75;;;6.95;;
74233;SDS011;62591;55.764;37.718;2024-03-23T15:03:45;9.35;;;6.47;;
74233;SDS011;62591;55.764;37.718;2024-03-23T15:06:13;11.65;;;8.20;;
74233;SDS011;62591;55.764;37.718;2024-03-23T15:08:40;7.63;;;5.82;;
74233;SDS011;62591;55.764;37.718;2024-03-23T15:11:11;9.65;;;6.78;;
74233;SDS011;62591;55.764;37.718;2024-03-23T15:13:45;10.88;;;6.72;;
74233;SDS011;62591;55.764;37.718;2024-03-23T15:16:16;9.60;;;6.07;;
74233;SDS011;62591;55.764;37.718;2024-03-23T15:19:06;9.40;;;6.22;;
74233;SDS011;62591;55.764;37.718;2024-03-23T15:21:38;11.27;;;5.80;;
74233;SDS011;62591;55.764;37.718;2024-03-23T15:24:06;11.02;;;6.43;;
74233;SDS011;62591;55.764;37.718;2024-03-23T15:26:36;10.75;;;6.20;;
74233;SDS011;62591;55.764;37.718;2024-03-23T15:29:04;11.80;;;6.53;;
74233;SDS011;62591;55.764;37.718;2024-03-23T15:31:42;10.65;;;7.45;;
74233;SDS011;62591;55.764;37.718;2024-03-23T15:34:09;26.65;;;18.13;;
74233;SDS011;62591;55.764;37.718;2024-03-23T15:36:37;9.93;;;6.97;;
74233;SDS011;62591;55.764;37.718;2024-03-23T15:39:04;10.52;;;6.68;;
74233;SDS011;62591;55.764;37.718;2024-03-23T15:41:35;9.65;;;6.25;;
74233;SDS011;62591;55.764;37.718;2024-03-23T15:44:03;10.25;;;6.80;;
74233;SDS011;62591;55.764;37.718;2024-03-23T15:46:34;9.85;;;6.78;;
74233;SDS011;62591;55.764;37.718;2024-03-23T15:49:01;13.30;;;6.63;;